sensor_id;sensor_type;location;lat;lon;timestamp;P1;durP1;ratioP1;P2;durP2;ratioP2
10529;SDS011;5313;48.834;9.228;2023-07-20T00:01:10;4.00;;;2.20;;
10529;SDS011;5313;48.834;9.228;2023-07-20T00:03:36;3.63;;;1.90;;
10529;SDS011;5313;48.834;9.228;2023-07-20T00:06:01;2.27;;;1.73;;
10529;SDS011;5313;48.834;9.228;2023-07-20T00:08:29;3.33;;;2.10;;
10529;SDS011;5313;48.834;9.228;2023-07-20T00:10:54;4.63;;;2.30;;
10529;SDS011;5313;48.834;9.228;2023-07-20T00:13:20;2.50;;;2.03;;
10529;SDS011;5313;48.834;9.228;2023-07-20T00:15:46;6.53;;;2.10;;
10529;SDS011;5313;48.834;9.228;2023-07-20T00:18:11;3.10;;;1.97;;
10529;SDS011;5313;48.834;9.228;2023-07-20T00:20:37;3.67;;;2.00;;
10529;SDS011;5313;48.834;9.228;2023-07-20T00:23:03;2.87;;;2.07;;
10529;SDS011;5313;48.834;9.228;2023-07-20T00:25:29;2.97;;;2.10;;
10529;SDS011;5313;48.834;9.228;2023-07-20T00:27:54;2.60;;;1.70;;
10529;SDS011;5313;48.834;9.228;2023-07-20T00:30:20;3.13;;;2.20;;
10529;SDS011;5313;48.834;9.228;2023-07-20T00:32:45;2.50;;;1.90;;
10529;SDS011;5313;48.834;9.228;2023-07-20T00:35:11;4.33;;;2.23;;
10529;SDS011;5313;48.834;9.228;2023-07-20T00:37:37;3.80;;;1.70;;
10529;SDS011;5313;48.834;9.228;2023-07-20T00:40:03;2.50;;;1.80;;
10529;SDS011;5313;48.834;9.228;2023-07-20T00:42:30;2.90;;;2.00;;
10529;SDS011;5313;48.834;9.228;2023-07-20T00:44:56;3.43;;;1.93;;
10529;SDS011;5313;48.834;9.228;2023-07-20T00:47:21;3.03;;;1.73;;
10529;SDS011;5313;48.834;9.228;2023-07-20T00:49:47;2.43;;;1.80;;
10529;SDS011;5313;48.834;9.228;2023-07-20T00:52:13;3.93;;;1.80;;
10529;SDS011;5313;48.834;9.228;2023-07-20T00:54:42;3.37;;;1.63;;
10529;SDS011;5313;48.834;9.228;2023-07-20T00:57:08;2.63;;;1.63;;
10529;SDS011;5313;48.834;9.228;2023-07-20T00:59:34;3.23;;;1.77;;
10529;SDS011;5313;48.834;9.228;2023-07-20T01:02:01;2.90;;;1.70;;
10529;SDS011;5313;48.834;9.228;2023-07-20T01:04:27;3.23;;;1.70;;
10529;SDS011;5313;48.834;9.228;2023-07-20T01:07:10;5.80;;;1.63;;
10529;SDS011;5313;48.834;9.228;2023-07-20T01:12:42;3.37;;;2.10;;
10529;SDS011;5313;48.834;9.228;2023-07-20T01:15:08;2.37;;;1.93;;
10529;SDS011;5313;48.834;9.228;2023-07-20T01:17:34;2.93;;;1.73;;
10529;SDS011;5313;48.834;9.228;2023-07-20T01:20:00;2.90;;;1.50;;
10529;SDS011;5313;48.834;9.228;2023-07-20T01:33:42;4.53;;;1.70;;
10529;SDS011;5313;48.834;9.228;2023-07-20T01:36:09;2.47;;;1.60;;
10529;SDS011;5313;48.834;9.228;2023-07-20T01:38:36;5.27;;;1.80;;
10529;SDS011;5313;48.834;9.228;2023-07-20T01:41:02;3.03;;;1.90;;
10529;SDS011;5313;48.834;9.228;2023-07-20T01:43:28;4.07;;;1.87;;
10529;SDS011;5313;48.834;9.228;2023-07-20T01:45:54;5.77;;;1.80;;
10529;SDS011;5313;48.834;9.228;2023-07-20T01:48:19;3.20;;;1.80;;
10529;SDS011;5313;48.834;9.228;2023-07-20T01:50:45;2.70;;;1.80;;
10529;SDS011;5313;48.834;9.228;2023-07-20T01:53:10;2.80;;;1.80;;
10529;SDS011;5313;48.834;9.228;2023-07-20T01:55:36;6.93;;;2.00;;
10529;SDS011;5313;48.834;9.228;2023-07-20T01:58:02;4.70;;;1.80;;
10529;SDS011;5313;48.834;9.228;2023-07-20T02:00:28;3.27;;;1.70;;
10529;SDS011;5313;48.834;9.228;2023-07-20T02:02:54;3.80;;;1.40;;
10529;SDS011;5313;48.834;9.228;2023-07-20T02:05:19;2.80;;;1.90;;
10529;SDS011;5313;48.834;9.228;2023-07-20T02:07:45;3.83;;;1.70;;
10529;SDS011;5313;48.834;9.228;2023-07-20T02:10:11;3.07;;;1.77;;
10529;SDS011;5313;48.834;9.228;2023-07-20T02:12:36;3.17;;;1.87;;
10529;SDS011;5313;48.834;9.228;2023-07-20T02:15:02;3.03;;;1.93;;
10529;SDS011;5313;48.834;9.228;2023-07-20T02:17:28;2.70;;;1.87;;
10529;SDS011;5313;48.834;9.228;2023-07-20T02:19:53;2.73;;;2.00;;
10529;SDS011;5313;48.834;9.228;2023-07-20T02:22:20;2.80;;;1.80;;
10529;SDS011;5313;48.834;9.228;2023-07-20T02:24:46;2.30;;;1.77;;
10529;SDS011;5313;48.834;9.228;2023-07-20T02:27:12;3.33;;;1.70;;
10529;SDS011;5313;48.834;9.228;2023-07-20T02:29:37;4.27;;;1.90;;
10529;SDS011;5313;48.834;9.228;2023-07-20T02:32:03;2.87;;;1.70;;
10529;SDS011;5313;48.834;9.228;2023-07-20T02:34:30;4.63;;;1.80;;
10529;SDS011;5313;48.834;9.228;2023-07-20T02:36:56;2.30;;;2.00;;
10529;SDS011;5313;48.834;9.228;2023-07-20T02:39:22;4.60;;;2.03;;
10529;SDS011;5313;48.834;9.228;2023-07-20T02:41:48;4.17;;;2.10;;
10529;SDS011;5313;48.834;9.228;2023-07-20T02:44:14;5.83;;;2.33;;
10529;SDS011;5313;48.834;9.228;2023-07-20T02:46:39;3.23;;;1.63;;
10529;SDS011;5313;48.834;9.228;2023-07-20T02:49:05;3.67;;;2.07;;
10529;SDS011;5313;48.834;9.228;2023-07-20T02:51:31;3.07;;;2.00;;
10529;SDS011;5313;48.834;9.228;2023-07-20T02:53:56;3.97;;;1.97;;
10529;SDS011;5313;48.834;9.228;2023-07-20T02:56:22;5.27;;;1.83;;
10529;SDS011;5313;48.834;9.228;2023-07-20T02:58:48;4.57;;;1.90;;
10529;SDS011;5313;48.834;9.228;2023-07-20T03:01:13;2.83;;;2.00;;
10529;SDS011;5313;48.834;9.228;2023-07-20T03:03:40;4.47;;;2.00;;
10529;SDS011;5313;48.834;9.228;2023-07-20T03:06:07;4.53;;;2.03;;
10529;SDS011;5313;48.834;9.228;2023-07-20T03:08:34;3.07;;;1.70;;
10529;SDS011;5313;48.834;9.228;2023-07-20T03:11:00;4.00;;;1.90;;
10529;SDS011;5313;48.834;9.228;2023-07-20T03:13:26;3.27;;;1.93;;
10529;SDS011;5313;48.834;9.228;2023-07-20T03:15:54;2.57;;;1.87;;
10529;SDS011;5313;48.834;9.228;2023-07-20T03:18:20;3.07;;;2.00;;
10529;SDS011;5313;48.834;9.228;2023-07-20T03:20:45;2.00;;;1.70;;
10529;SDS011;5313;48.834;9.228;2023-07-20T03:23:11;3.60;;;2.00;;
10529;SDS011;5313;48.834;9.228;2023-07-20T03:25:37;2.47;;;1.73;;
10529;SDS011;5313;48.834;9.228;2023-07-20T03:28:03;3.07;;;1.70;;
10529;SDS011;5313;48.834;9.228;2023-07-20T03:30:29;2.70;;;2.00;;
10529;SDS011;5313;48.834;9.228;2023-07-20T03:32:54;3.37;;;1.80;;
10529;SDS011;5313;48.834;9.228;2023-07-20T03:35:20;2.57;;;1.80;;
10529;SDS011;5313;48.834;9.228;2023-07-20T03:37:45;5.57;;;1.80;;
10529;SDS011;5313;48.834;9.228;2023-07-20T03:40:11;3.53;;;1.90;;
10529;SDS011;5313;48.834;9.228;2023-07-20T03:42:36;5.00;;;1.70;;
10529;SDS011;5313;48.834;9.228;2023-07-20T03:45:02;3.40;;;1.60;;
10529;SDS011;5313;48.834;9.228;2023-07-20T03:47:29;4.37;;;1.70;;
10529;SDS011;5313;48.834;9.228;2023-07-20T03:49:55;2.50;;;1.90;;
10529;SDS011;5313;48.834;9.228;2023-07-20T03:52:20;3.50;;;1.90;;
10529;SDS011;5313;48.834;9.228;2023-07-20T03:54:46;3.53;;;1.97;;
10529;SDS011;5313;48.834;9.228;2023-07-20T03:57:11;3.03;;;1.97;;
10529;SDS011;5313;48.834;9.228;2023-07-20T03:59:37;3.83;;;1.70;;
10529;SDS011;5313;48.834;9.228;2023-07-20T04:02:04;4.37;;;1.93;;
10529;SDS011;5313;48.834;9.228;2023-07-20T04:04:30;3.73;;;2.10;;
10529;SDS011;5313;48.834;9.228;2023-07-20T04:06:56;3.23;;;1.80;;
10529;SDS011;5313;48.834;9.228;2023-07-20T04:09:21;3.67;;;1.70;;
10529;SDS011;5313;48.834;9.228;2023-07-20T04:11:47;2.63;;;2.00;;
10529;SDS011;5313;48.834;9.228;2023-07-20T04:14:12;4.00;;;1.50;;
10529;SDS011;5313;48.834;9.228;2023-07-20T04:16:38;3.23;;;1.90;;
10529;SDS011;5313;48.834;9.228;2023-07-20T04:19:03;3.27;;;1.80;;
10529;SDS011;5313;48.834;9.228;2023-07-20T04:21:29;3.37;;;2.00;;
10529;SDS011;5313;48.834;9.228;2023-07-20T04:23:54;3.43;;;1.70;;
10529;SDS011;5313;48.834;9.228;2023-07-20T04:26:20;2.53;;;2.00;;
10529;SDS011;5313;48.834;9.228;2023-07-20T04:28:45;5.30;;;2.10;;
10529;SDS011;5313;48.834;9.228;2023-07-20T04:31:13;3.80;;;1.80;;
10529;SDS011;5313;48.834;9.228;2023-07-20T04:33:39;4.30;;;2.00;;
10529;SDS011;5313;48.834;9.228;2023-07-20T04:36:05;3.13;;;2.20;;
10529;SDS011;5313;48.834;9.228;2023-07-20T04:38:31;3.30;;;1.93;;
10529;SDS011;5313;48.834;9.228;2023-07-20T04:40:56;3.47;;;1.73;;
10529;SDS011;5313;48.834;9.228;2023-07-20T04:43:22;3.13;;;1.80;;
10529;SDS011;5313;48.834;9.228;2023-07-20T04:45:47;2.63;;;1.57;;
10529;SDS011;5313;48.834;9.228;2023-07-20T04:48:13;2.40;;;1.80;;
10529;SDS011;5313;48.834;9.228;2023-07-20T04:50:40;4.80;;;2.00;;
10529;SDS011;5313;48.834;9.228;2023-07-20T04:53:08;3.50;;;2.00;;
10529;SDS011;5313;48.834;9.228;2023-07-20T04:55:35;4.30;;;2.03;;
10529;SDS011;5313;48.834;9.228;2023-07-20T04:58:02;3.70;;;2.40;;
10529;SDS011;5313;48.834;9.228;2023-07-20T05:00:28;5.07;;;2.30;;
10529;SDS011;5313;48.834;9.228;2023-07-20T05:02:54;4.50;;;2.13;;
10529;SDS011;5313;48.834;9.228;2023-07-20T05:05:20;4.73;;;1.90;;
10529;SDS011;5313;48.834;9.228;2023-07-20T05:07:46;3.43;;;2.00;;
10529;SDS011;5313;48.834;9.228;2023-07-20T05:10:11;4.53;;;2.20;;
10529;SDS011;5313;48.834;9.228;2023-07-20T05:12:37;4.33;;;2.17;;
10529;SDS011;5313;48.834;9.228;2023-07-20T05:15:03;4.30;;;2.10;;
10529;SDS011;5313;48.834;9.228;2023-07-20T05:17:29;3.50;;;1.80;;
10529;SDS011;5313;48.834;9.228;2023-07-20T05:19:54;3.73;;;1.73;;
10529;SDS011;5313;48.834;9.228;2023-07-20T05:22:20;5.93;;;2.27;;
10529;SDS011;5313;48.834;9.228;2023-07-20T05:24:45;2.67;;;1.90;;
10529;SDS011;5313;48.834;9.228;2023-07-20T05:27:11;3.60;;;1.80;;
10529;SDS011;5313;48.834;9.228;2023-07-20T05:29:37;3.50;;;2.07;;
10529;SDS011;5313;48.834;9.228;2023-07-20T05:32:02;2.43;;;1.53;;
10529;SDS011;5313;48.834;9.228;2023-07-20T05:34:28;3.07;;;1.70;;
10529;SDS011;5313;48.834;9.228;2023-07-20T05:36:54;4.43;;;1.97;;
10529;SDS011;5313;48.834;9.228;2023-07-20T05:39:20;3.60;;;1.80;;
10529;SDS011;5313;48.834;9.228;2023-07-20T05:41:45;2.90;;;2.00;;
10529;SDS011;5313;48.834;9.228;2023-07-20T05:44:11;2.93;;;1.97;;
10529;SDS011;5313;48.834;9.228;2023-07-20T05:46:37;3.87;;;2.00;;
10529;SDS011;5313;48.834;9.228;2023-07-20T05:49:02;6.03;;;2.10;;
10529;SDS011;5313;48.834;9.228;2023-07-20T05:51:28;4.83;;;2.13;;
10529;SDS011;5313;48.834;9.228;2023-07-20T05:53:53;3.10;;;2.03;;
10529;SDS011;5313;48.834;9.228;2023-07-20T05:56:19;3.33;;;1.77;;
10529;SDS011;5313;48.834;9.228;2023-07-20T05:58:45;3.20;;;2.00;;
10529;SDS011;5313;48.834;9.228;2023-07-20T06:01:10;5.47;;;1.67;;
10529;SDS011;5313;48.834;9.228;2023-07-20T06:03:36;2.53;;;1.73;;
10529;SDS011;5313;48.834;9.228;2023-07-20T06:06:02;4.60;;;2.00;;
10529;SDS011;5313;48.834;9.228;2023-07-20T06:08:29;4.53;;;2.30;;
10529;SDS011;5313;48.834;9.228;2023-07-20T06:10:55;5.27;;;2.10;;
10529;SDS011;5313;48.834;9.228;2023-07-20T06:13:21;2.83;;;1.77;;
10529;SDS011;5313;48.834;9.228;2023-07-20T06:15:46;4.20;;;2.00;;
10529;SDS011;5313;48.834;9.228;2023-07-20T06:18:12;4.13;;;1.90;;
10529;SDS011;5313;48.834;9.228;2023-07-20T06:20:38;3.93;;;2.07;;
10529;SDS011;5313;48.834;9.228;2023-07-20T06:23:04;8.23;;;1.80;;
10529;SDS011;5313;48.834;9.228;2023-07-20T06:25:29;6.60;;;2.13;;
10529;SDS011;5313;48.834;9.228;2023-07-20T06:27:55;2.57;;;1.80;;
10529;SDS011;5313;48.834;9.228;2023-07-20T06:30:21;4.87;;;1.83;;
10529;SDS011;5313;48.834;9.228;2023-07-20T06:32:46;4.23;;;2.20;;
10529;SDS011;5313;48.834;9.228;2023-07-20T06:35:13;5.20;;;2.00;;
10529;SDS011;5313;48.834;9.228;2023-07-20T06:37:39;3.10;;;1.80;;
10529;SDS011;5313;48.834;9.228;2023-07-20T06:40:05;6.33;;;2.00;;
10529;SDS011;5313;48.834;9.228;2023-07-20T06:42:33;6.47;;;2.10;;
10529;SDS011;5313;48.834;9.228;2023-07-20T06:44:59;3.13;;;2.00;;
10529;SDS011;5313;48.834;9.228;2023-07-20T06:47:25;3.03;;;1.73;;
10529;SDS011;5313;48.834;9.228;2023-07-20T06:49:50;4.00;;;1.80;;
10529;SDS011;5313;48.834;9.228;2023-07-20T06:52:16;3.47;;;2.13;;
10529;SDS011;5313;48.834;9.228;2023-07-20T06:54:41;2.60;;;1.70;;
10529;SDS011;5313;48.834;9.228;2023-07-20T06:57:07;4.60;;;1.80;;
10529;SDS011;5313;48.834;9.228;2023-07-20T06:59:32;3.60;;;1.80;;
10529;SDS011;5313;48.834;9.228;2023-07-20T07:01:58;3.60;;;1.97;;
10529;SDS011;5313;48.834;9.228;2023-07-20T07:04:23;3.60;;;2.10;;
10529;SDS011;5313;48.834;9.228;2023-07-20T07:06:49;6.40;;;1.90;;
10529;SDS011;5313;48.834;9.228;2023-07-20T07:09:14;4.17;;;1.83;;
10529;SDS011;5313;48.834;9.228;2023-07-20T07:11:40;3.50;;;1.90;;
10529;SDS011;5313;48.834;9.228;2023-07-20T07:14:05;6.40;;;1.70;;
10529;SDS011;5313;48.834;9.228;2023-07-20T07:16:31;4.27;;;2.10;;
10529;SDS011;5313;48.834;9.228;2023-07-20T07:18:56;5.17;;;1.90;;
10529;SDS011;5313;48.834;9.228;2023-07-20T07:21:22;5.43;;;1.80;;
10529;SDS011;5313;48.834;9.228;2023-07-20T07:23:47;4.67;;;1.80;;
10529;SDS011;5313;48.834;9.228;2023-07-20T07:26:14;2.67;;;1.80;;
10529;SDS011;5313;48.834;9.228;2023-07-20T07:28:40;3.00;;;1.77;;
10529;SDS011;5313;48.834;9.228;2023-07-20T07:31:05;4.27;;;1.73;;
10529;SDS011;5313;48.834;9.228;2023-07-20T07:33:31;3.33;;;1.60;;
10529;SDS011;5313;48.834;9.228;2023-07-20T07:35:57;2.83;;;1.80;;
10529;SDS011;5313;48.834;9.228;2023-07-20T07:38:23;3.17;;;1.60;;
10529;SDS011;5313;48.834;9.228;2023-07-20T07:40:48;2.83;;;1.70;;
10529;SDS011;5313;48.834;9.228;2023-07-20T07:43:14;4.70;;;1.73;;
10529;SDS011;5313;48.834;9.228;2023-07-20T07:45:40;2.33;;;1.50;;
10529;SDS011;5313;48.834;9.228;2023-07-20T07:48:06;6.90;;;1.80;;
10529;SDS011;5313;48.834;9.228;2023-07-20T07:50:32;3.70;;;1.63;;
10529;SDS011;5313;48.834;9.228;2023-07-20T07:52:58;1.97;;;1.50;;
10529;SDS011;5313;48.834;9.228;2023-07-20T07:55:24;2.03;;;1.80;;
10529;SDS011;5313;48.834;9.228;2023-07-20T07:57:51;3.87;;;1.80;;
10529;SDS011;5313;48.834;9.228;2023-07-20T08:00:17;2.70;;;1.80;;
10529;SDS011;5313;48.834;9.228;2023-07-20T08:02:44;2.60;;;1.63;;
10529;SDS011;5313;48.834;9.228;2023-07-20T08:05:11;4.20;;;1.60;;
10529;SDS011;5313;48.834;9.228;2023-07-20T08:07:37;4.20;;;1.97;;
10529;SDS011;5313;48.834;9.228;2023-07-20T08:10:03;3.83;;;1.93;;
10529;SDS011;5313;48.834;9.228;2023-07-20T08:12:29;2.83;;;1.67;;
10529;SDS011;5313;48.834;9.228;2023-07-20T08:14:55;3.93;;;1.70;;
10529;SDS011;5313;48.834;9.228;2023-07-20T08:17:20;3.37;;;1.50;;
10529;SDS011;5313;48.834;9.228;2023-07-20T08:19:46;4.23;;;2.27;;
10529;SDS011;5313;48.834;9.228;2023-07-20T08:22:12;2.20;;;1.43;;
10529;SDS011;5313;48.834;9.228;2023-07-20T08:24:40;6.17;;;1.80;;
10529;SDS011;5313;48.834;9.228;2023-07-20T08:27:07;6.40;;;2.07;;
10529;SDS011;5313;48.834;9.228;2023-07-20T08:29:34;3.17;;;1.90;;
10529;SDS011;5313;48.834;9.228;2023-07-20T08:31:59;4.33;;;1.80;;
10529;SDS011;5313;48.834;9.228;2023-07-20T08:34:25;2.93;;;1.70;;
10529;SDS011;5313;48.834;9.228;2023-07-20T08:36:50;3.33;;;1.80;;
10529;SDS011;5313;48.834;9.228;2023-07-20T08:39:16;2.13;;;1.57;;
10529;SDS011;5313;48.834;9.228;2023-07-20T08:41:46;2.93;;;1.70;;
10529;SDS011;5313;48.834;9.228;2023-07-20T08:44:11;6.77;;;1.80;;
10529;SDS011;5313;48.834;9.228;2023-07-20T08:46:38;5.07;;;1.87;;
10529;SDS011;5313;48.834;9.228;2023-07-20T08:49:05;2.70;;;2.00;;
10529;SDS011;5313;48.834;9.228;2023-07-20T08:51:31;1.93;;;1.50;;
10529;SDS011;5313;48.834;9.228;2023-07-20T08:53:58;2.73;;;1.60;;
10529;SDS011;5313;48.834;9.228;2023-07-20T08:56:24;6.57;;;1.70;;
10529;SDS011;5313;48.834;9.228;2023-07-20T08:58:51;3.47;;;1.70;;
10529;SDS011;5313;48.834;9.228;2023-07-20T09:01:19;5.90;;;1.60;;
10529;SDS011;5313;48.834;9.228;2023-07-20T09:03:46;2.87;;;1.60;;
10529;SDS011;5313;48.834;9.228;2023-07-20T09:06:12;3.60;;;1.77;;
10529;SDS011;5313;48.834;9.228;2023-07-20T09:08:38;2.70;;;1.60;;
10529;SDS011;5313;48.834;9.228;2023-07-20T09:11:05;3.80;;;1.60;;
10529;SDS011;5313;48.834;9.228;2023-07-20T09:13:34;2.50;;;1.40;;
10529;SDS011;5313;48.834;9.228;2023-07-20T09:15:59;3.63;;;1.63;;
10529;SDS011;5313;48.834;9.228;2023-07-20T09:18:26;3.80;;;1.53;;
10529;SDS011;5313;48.834;9.228;2023-07-20T09:20:57;3.70;;;1.77;;
10529;SDS011;5313;48.834;9.228;2023-07-20T09:23:38;3.43;;;1.60;;
10529;SDS011;5313;48.834;9.228;2023-07-20T09:26:14;6.23;;;2.00;;
10529;SDS011;5313;48.834;9.228;2023-07-20T09:28:44;7.13;;;1.87;;
10529;SDS011;5313;48.834;9.228;2023-07-20T09:31:22;2.13;;;1.60;;
10529;SDS011;5313;48.834;9.228;2023-07-20T09:33:48;3.90;;;1.60;;
10529;SDS011;5313;48.834;9.228;2023-07-20T09:36:14;2.33;;;1.70;;
10529;SDS011;5313;48.834;9.228;2023-07-20T09:38:43;3.20;;;1.73;;
10529;SDS011;5313;48.834;9.228;2023-07-20T09:41:13;3.73;;;1.50;;
10529;SDS011;5313;48.834;9.228;2023-07-20T09:43:43;2.87;;;2.03;;
10529;SDS011;5313;48.834;9.228;2023-07-20T09:46:10;1.80;;;1.33;;
10529;SDS011;5313;48.834;9.228;2023-07-20T09:48:35;3.97;;;1.70;;
10529;SDS011;5313;48.834;9.228;2023-07-20T09:51:01;2.43;;;1.77;;
10529;SDS011;5313;48.834;9.228;2023-07-20T09:53:28;2.47;;;1.60;;
10529;SDS011;5313;48.834;9.228;2023-07-20T09:55:54;3.03;;;1.30;;
10529;SDS011;5313;48.834;9.228;2023-07-20T09:58:21;5.77;;;1.90;;
10529;SDS011;5313;48.834;9.228;2023-07-20T10:00:47;3.50;;;1.40;;
10529;SDS011;5313;48.834;9.228;2023-07-20T10:03:18;1.57;;;1.20;;
10529;SDS011;5313;48.834;9.228;2023-07-20T10:05:46;3.60;;;1.23;;
10529;SDS011;5313;48.834;9.228;2023-07-20T10:08:20;2.60;;;1.37;;
10529;SDS011;5313;48.834;9.228;2023-07-20T10:10:48;2.53;;;1.13;;
10529;SDS011;5313;48.834;9.228;2023-07-20T10:13:17;2.27;;;1.20;;
10529;SDS011;5313;48.834;9.228;2023-07-20T10:15:49;3.07;;;1.23;;
10529;SDS011;5313;48.834;9.228;2023-07-20T10:18:29;1.93;;;1.30;;
10529;SDS011;5313;48.834;9.228;2023-07-20T10:20:59;1.87;;;1.13;;
10529;SDS011;5313;48.834;9.228;2023-07-20T10:23:27;1.73;;;1.40;;
10529;SDS011;5313;48.834;9.228;2023-07-20T10:25:57;1.40;;;1.07;;
10529;SDS011;5313;48.834;9.228;2023-07-20T10:28:23;2.07;;;1.33;;
10529;SDS011;5313;48.834;9.228;2023-07-20T10:30:49;1.63;;;1.20;;
10529;SDS011;5313;48.834;9.228;2023-07-20T10:33:16;2.27;;;1.03;;
10529;SDS011;5313;48.834;9.228;2023-07-20T10:35:55;1.63;;;1.40;;
10529;SDS011;5313;48.834;9.228;2023-07-20T10:41:20;1.93;;;1.40;;
10529;SDS011;5313;48.834;9.228;2023-07-20T10:43:48;2.50;;;1.20;;
10529;SDS011;5313;48.834;9.228;2023-07-20T10:46:14;3.23;;;1.00;;
10529;SDS011;5313;48.834;9.228;2023-07-20T10:48:58;3.23;;;1.63;;
10529;SDS011;5313;48.834;9.228;2023-07-20T10:51:25;2.07;;;1.17;;
10529;SDS011;5313;48.834;9.228;2023-07-20T10:53:51;2.07;;;1.20;;
10529;SDS011;5313;48.834;9.228;2023-07-20T10:56:21;1.97;;;1.30;;
10529;SDS011;5313;48.834;9.228;2023-07-20T10:58:48;1.83;;;1.10;;
10529;SDS011;5313;48.834;9.228;2023-07-20T11:01:14;2.17;;;1.10;;
10529;SDS011;5313;48.834;9.228;2023-07-20T11:03:42;2.13;;;1.27;;
10529;SDS011;5313;48.834;9.228;2023-07-20T11:08:49;2.83;;;1.07;;
10529;SDS011;5313;48.834;9.228;2023-07-20T11:11:44;2.20;;;1.40;;
10529;SDS011;5313;48.834;9.228;2023-07-20T11:14:21;2.00;;;1.10;;
10529;SDS011;5313;48.834;9.228;2023-07-20T11:16:48;1.40;;;1.10;;
10529;SDS011;5313;48.834;9.228;2023-07-20T11:19:19;2.00;;;1.30;;
10529;SDS011;5313;48.834;9.228;2023-07-20T11:21:55;3.73;;;1.10;;
10529;SDS011;5313;48.834;9.228;2023-07-20T11:24:22;2.33;;;1.00;;
10529;SDS011;5313;48.834;9.228;2023-07-20T11:26:49;1.50;;;1.40;;
10529;SDS011;5313;48.834;9.228;2023-07-20T11:29:16;2.40;;;1.07;;
10529;SDS011;5313;48.834;9.228;2023-07-20T11:31:46;2.23;;;1.00;;
10529;SDS011;5313;48.834;9.228;2023-07-20T11:34:13;2.10;;;1.10;;
10529;SDS011;5313;48.834;9.228;2023-07-20T11:36:42;1.83;;;1.10;;
10529;SDS011;5313;48.834;9.228;2023-07-20T11:39:21;5.03;;;1.20;;
10529;SDS011;5313;48.834;9.228;2023-07-20T11:41:48;1.43;;;1.10;;
10529;SDS011;5313;48.834;9.228;2023-07-20T11:44:15;1.97;;;1.27;;
10529;SDS011;5313;48.834;9.228;2023-07-20T11:46:42;1.73;;;1.10;;
10529;SDS011;5313;48.834;9.228;2023-07-20T11:49:09;2.40;;;1.00;;
10529;SDS011;5313;48.834;9.228;2023-07-20T11:51:34;1.90;;;1.20;;
10529;SDS011;5313;48.834;9.228;2023-07-20T11:54:02;1.27;;;1.17;;
10529;SDS011;5313;48.834;9.228;2023-07-20T11:56:29;1.90;;;1.23;;
10529;SDS011;5313;48.834;9.228;2023-07-20T11:58:55;1.73;;;0.97;;
10529;SDS011;5313;48.834;9.228;2023-07-20T12:01:25;2.90;;;1.10;;
10529;SDS011;5313;48.834;9.228;2023-07-20T12:03:56;2.53;;;1.10;;
10529;SDS011;5313;48.834;9.228;2023-07-20T12:06:22;1.53;;;1.20;;
10529;SDS011;5313;48.834;9.228;2023-07-20T12:08:50;9.48;;;1.23;;
10529;SDS011;5313;48.834;9.228;2023-07-20T12:11:34;1.43;;;1.10;;
10529;SDS011;5313;48.834;9.228;2023-07-20T12:14:01;3.53;;;1.10;;
10529;SDS011;5313;48.834;9.228;2023-07-20T12:16:28;1.90;;;1.20;;
10529;SDS011;5313;48.834;9.228;2023-07-20T12:19:01;2.50;;;1.10;;
10529;SDS011;5313;48.834;9.228;2023-07-20T12:21:30;2.17;;;1.20;;
10529;SDS011;5313;48.834;9.228;2023-07-20T12:23:56;1.57;;;1.07;;
10529;SDS011;5313;48.834;9.228;2023-07-20T12:26:23;3.90;;;1.30;;
10529;SDS011;5313;48.834;9.228;2023-07-20T12:28:50;1.95;;;0.95;;
10529;SDS011;5313;48.834;9.228;2023-07-20T12:31:16;1.17;;;0.98;;
10529;SDS011;5313;48.834;9.228;2023-07-20T12:33:41;1.98;;;1.15;;
10529;SDS011;5313;48.834;9.228;2023-07-20T12:36:07;1.50;;;0.98;;
10529;SDS011;5313;48.834;9.228;2023-07-20T12:38:33;2.05;;;1.10;;
10529;SDS011;5313;48.834;9.228;2023-07-20T12:41:02;1.70;;;1.20;;
10529;SDS011;5313;48.834;9.228;2023-07-20T12:43:28;8.55;;;1.40;;
10529;SDS011;5313;48.834;9.228;2023-07-20T12:45:54;2.55;;;1.23;;
10529;SDS011;5313;48.834;9.228;2023-07-20T12:48:20;2.05;;;1.20;;
10529;SDS011;5313;48.834;9.228;2023-07-20T12:50:46;2.90;;;1.00;;
10529;SDS011;5313;48.834;9.228;2023-07-20T12:53:12;2.40;;;1.10;;
10529;SDS011;5313;48.834;9.228;2023-07-20T12:55:38;3.28;;;1.33;;
10529;SDS011;5313;48.834;9.228;2023-07-20T12:58:04;1.52;;;1.02;;
10529;SDS011;5313;48.834;9.228;2023-07-20T13:00:30;1.30;;;1.00;;
10529;SDS011;5313;48.834;9.228;2023-07-20T13:02:56;2.17;;;1.10;;
10529;SDS011;5313;48.834;9.228;2023-07-20T13:05:22;1.48;;;1.00;;
10529;SDS011;5313;48.834;9.228;2023-07-20T13:07:48;3.17;;;1.30;;
10529;SDS011;5313;48.834;9.228;2023-07-20T13:10:13;3.25;;;1.38;;
10529;SDS011;5313;48.834;9.228;2023-07-20T13:12:39;1.70;;;1.10;;
10529;SDS011;5313;48.834;9.228;2023-07-20T13:15:06;7.07;;;1.30;;
10529;SDS011;5313;48.834;9.228;2023-07-20T13:17:33;2.25;;;1.00;;
10529;SDS011;5313;48.834;9.228;2023-07-20T13:20:00;2.13;;;1.23;;
10529;SDS011;5313;48.834;9.228;2023-07-20T13:22:26;2.72;;;1.15;;
10529;SDS011;5313;48.834;9.228;2023-07-20T13:24:52;1.77;;;1.40;;
10529;SDS011;5313;48.834;9.228;2023-07-20T13:27:18;1.30;;;1.10;;
10529;SDS011;5313;48.834;9.228;2023-07-20T13:29:44;1.58;;;1.00;;
10529;SDS011;5313;48.834;9.228;2023-07-20T13:32:12;1.58;;;1.00;;
10529;SDS011;5313;48.834;9.228;2023-07-20T13:34:43;1.52;;;1.00;;
10529;SDS011;5313;48.834;9.228;2023-07-20T13:37:09;1.20;;;0.98;;
10529;SDS011;5313;48.834;9.228;2023-07-20T13:39:34;3.25;;;1.10;;
10529;SDS011;5313;48.834;9.228;2023-07-20T13:42:00;1.70;;;0.95;;
10529;SDS011;5313;48.834;9.228;2023-07-20T13:44:30;1.48;;;1.00;;
10529;SDS011;5313;48.834;9.228;2023-07-20T13:46:59;2.92;;;1.23;;
10529;SDS011;5313;48.834;9.228;2023-07-20T13:49:24;3.72;;;1.27;;
10529;SDS011;5313;48.834;9.228;2023-07-20T13:51:50;3.70;;;1.45;;
10529;SDS011;5313;48.834;9.228;2023-07-20T13:54:15;3.58;;;1.10;;
10529;SDS011;5313;48.834;9.228;2023-07-20T13:56:41;2.45;;;1.30;;
10529;SDS011;5313;48.834;9.228;2023-07-20T13:59:07;3.17;;;1.10;;
10529;SDS011;5313;48.834;9.228;2023-07-20T14:01:32;3.13;;;1.38;;
10529;SDS011;5313;48.834;9.228;2023-07-20T14:03:59;1.80;;;1.00;;
10529;SDS011;5313;48.834;9.228;2023-07-20T14:06:25;1.80;;;1.40;;
10529;SDS011;5313;48.834;9.228;2023-07-20T14:08:54;2.28;;;1.23;;
10529;SDS011;5313;48.834;9.228;2023-07-20T14:11:19;1.15;;;1.05;;
10529;SDS011;5313;48.834;9.228;2023-07-20T14:13:45;1.83;;;1.20;;
10529;SDS011;5313;48.834;9.228;2023-07-20T14:16:10;2.22;;;1.25;;
10529;SDS011;5313;48.834;9.228;2023-07-20T14:18:36;1.88;;;1.05;;
10529;SDS011;5313;48.834;9.228;2023-07-20T14:21:01;3.10;;;1.20;;
10529;SDS011;5313;48.834;9.228;2023-07-20T14:23:28;2.05;;;1.33;;
10529;SDS011;5313;48.834;9.228;2023-07-20T14:25:54;1.75;;;1.05;;
10529;SDS011;5313;48.834;9.228;2023-07-20T14:28:20;2.75;;;1.10;;
10529;SDS011;5313;48.834;9.228;2023-07-20T14:30:46;2.90;;;1.30;;
10529;SDS011;5313;48.834;9.228;2023-07-20T14:33:11;1.45;;;1.05;;
10529;SDS011;5313;48.834;9.228;2023-07-20T14:35:37;1.33;;;1.00;;
10529;SDS011;5313;48.834;9.228;2023-07-20T14:38:02;1.65;;;1.33;;
10529;SDS011;5313;48.834;9.228;2023-07-20T14:40:28;2.97;;;1.20;;
10529;SDS011;5313;48.834;9.228;2023-07-20T14:42:55;1.65;;;1.20;;
10529;SDS011;5313;48.834;9.228;2023-07-20T14:45:21;3.42;;;1.10;;
10529;SDS011;5313;48.834;9.228;2023-07-20T14:47:46;2.63;;;1.15;;
10529;SDS011;5313;48.834;9.228;2023-07-20T14:50:18;3.08;;;1.20;;
10529;SDS011;5313;48.834;9.228;2023-07-20T14:52:44;2.30;;;1.15;;
10529;SDS011;5313;48.834;9.228;2023-07-20T14:55:09;2.78;;;0.98;;
10529;SDS011;5313;48.834;9.228;2023-07-20T14:57:35;1.73;;;1.00;;
10529;SDS011;5313;48.834;9.228;2023-07-20T15:00:01;3.42;;;1.10;;
10529;SDS011;5313;48.834;9.228;2023-07-20T15:02:28;3.28;;;1.40;;
10529;SDS011;5313;48.834;9.228;2023-07-20T15:04:54;2.35;;;1.00;;
10529;SDS011;5313;48.834;9.228;2023-07-20T15:07:21;1.55;;;1.13;;
10529;SDS011;5313;48.834;9.228;2023-07-20T15:09:47;1.33;;;1.00;;
10529;SDS011;5313;48.834;9.228;2023-07-20T15:12:13;1.50;;;1.20;;
10529;SDS011;5313;48.834;9.228;2023-07-20T15:14:39;4.20;;;1.30;;
10529;SDS011;5313;48.834;9.228;2023-07-20T15:17:06;2.03;;;1.00;;